Time;durP1;ratioP1;P1;durP2;ratioP2;P2;SDS_P1;SDS_P2;PMS_P1;PMS_P2;Temp;Humidity;BMP_temperature;BMP_pressure;BME280_temperature;BME280_humidity;BME280_pressure;Samples;Min_cycle;Max_cycle;Signal;HPM_P1;HPM_P2
2022/07/07 00:00:06;;;;;;;4.40;3.20;;;;;;;;;;5035281;28;20442;-77
2022/07/07 00:02:34;;;;;;;3.30;2.80;;;;;;;;;;5034389;28;20474;-75
2022/07/07 00:05:01;;;;;;;3.30;3.00;;;;;;;;;;5036597;28;20439;-75
2022/07/07 00:07:29;;;;;;;2.93;2.60;;;;;;;;;;5036748;28;20482;-76
2022/07/07 00:09:56;;;;;;;6.13;3.47;;;;;;;;;;5052399;28;20484;-76
2022/07/07 00:12:23;;;;;;;3.80;3.50;;;;;;;;;;5054512;28;20893;-75
2022/07/07 00:14:50;;;;;;;3.30;3.00;;;;;;;;;;5050278;28;20446;-75
2022/07/07 00:17:17;;;;;;;4.83;3.13;;;;;;;;;;5050080;28;20495;-76
2022/07/07 00:19:46;;;;;;;2.97;2.73;;;;;;;;;;5050128;28;20449;-74
2022/07/07 00:22:13;;;;;;;3.33;3.03;;;;;;;;;;5050120;28;20465;-76
2022/07/07 00:24:40;;;;;;;3.93;3.40;;;;;;;;;;5049762;28;20441;-75
2022/07/07 00:27:07;;;;;;;3.50;3.20;;;;;;;;;;5049911;28;20847;-74
2022/07/07 00:29:34;;;;;;;3.63;3.33;;;;;;;;;;5050434;28;20445;-76
2022/07/07 00:32:01;;;;;;;6.00;3.10;;;;;;;;;;5050178;28;20464;-75
2022/07/07 00:34:28;;;;;;;4.77;2.73;;;;;;;;;;5049055;28;21159;-75
2022/07/07 00:36:56;;;;;;;3.47;3.17;;;;;;;;;;5049867;28;20441;-74
2022/07/07 00:39:23;;;;;;;3.73;2.90;;;;;;;;;;5039056;28;20447;-74
2022/07/07 00:41:50;;;;;;;3.43;3.13;;;;;;;;;;5029962;28;20470;-74
2022/07/07 00:44:19;;;;;;;2.47;2.30;;;;;;;;;;5029778;28;20452;-74
2022/07/07 00:46:46;;;;;;;4.30;3.13;;;;;;;;;;5029956;28;20483;-75
2022/07/07 00:49:14;;;;;;;3.50;3.20;;;;;;;;;;5030307;28;20533;-76
2022/07/07 00:51:41;;;;;;;3.27;2.67;;;;;;;;;;5030157;28;20462;-74
2022/07/07 00:54:10;;;;;;;3.00;2.80;;;;;;;;;;5029800;28;20454;-76
2022/07/07 00:56:37;;;;;;;2.53;2.33;;;;;;;;;;5030045;28;20504;-76
2022/07/07 00:59:07;;;;;;;2.90;2.70;;;;;;;;;;5030279;28;20449;-75
2022/07/07 01:01:35;;;;;;;4.50;2.70;;;;;;;;;;5033389;28;20528;-75
2022/07/07 01:04:03;;;;;;;2.50;2.40;;;;;;;;;;5036944;28;20534;-75
2022/07/07 01:06:30;;;;;;;3.43;2.70;;;;;;;;;;5034269;28;20493;-76
2022/07/07 01:08:57;;;;;;;2.87;2.40;;;;;;;;;;5036384;28;20533;-75
2022/07/07 01:11:26;;;;;;;4.90;2.30;;;;;;;;;;5052497;28;20469;-74
2022/07/07 01:13:53;;;;;;;3.23;2.47;;;;;;;;;;5052747;28;20448;-76
2022/07/07 01:16:20;;;;;;;3.17;2.70;;;;;;;;;;5034827;28;20438;-75
2022/07/07 01:18:47;;;;;;;2.80;2.43;;;;;;;;;;5033805;28;20450;-76
2022/07/07 01:21:15;;;;;;;4.33;2.80;;;;;;;;;;5036398;28;20442;-76
2022/07/07 01:23:44;;;;;;;6.93;3.00;;;;;;;;;;5040804;28;20885;-73
2022/07/07 01:26:11;;;;;;;2.70;2.50;;;;;;;;;;5041194;28;20532;-75
2022/07/07 01:28:38;;;;;;;2.60;2.40;;;;;;;;;;5038073;28;20442;-75
2022/07/07 01:31:05;;;;;;;2.90;2.57;;;;;;;;;;5033377;28;20438;-75
2022/07/07 01:33:32;;;;;;;3.30;3.00;;;;;;;;;;5033936;28;20821;-75
2022/07/07 01:35:59;;;;;;;4.47;2.57;;;;;;;;;;5053177;28;20434;-75
2022/07/07 01:38:26;;;;;;;3.30;2.40;;;;;;;;;;5049637;28;20435;-75
2022/07/07 01:40:54;;;;;;;3.30;2.30;;;;;;;;;;5033020;28;20451;-75
2022/07/07 01:43:21;;;;;;;3.83;2.60;;;;;;;;;;5032557;28;20462;-75
2022/07/07 01:45:48;;;;;;;3.30;2.50;;;;;;;;;;5033176;28;20480;-75
2022/07/07 01:48:15;;;;;;;2.90;2.70;;;;;;;;;;5032878;28;20450;-75
2022/07/07 01:50:42;;;;;;;2.97;2.70;;;;;;;;;;5032835;28;20438;-76
2022/07/07 01:53:09;;;;;;;4.07;3.00;;;;;;;;;;5032350;28;21059;-75
2022/07/07 01:55:36;;;;;;;3.57;3.10;;;;;;;;;;5032387;28;20492;-77
2022/07/07 01:58:05;;;;;;;4.07;2.87;;;;;;;;;;5031631;28;20457;-75
2022/07/07 02:00:33;;;;;;;3.20;3.00;;;;;;;;;;5032696;28;20456;-75
2022/07/07 02:03:00;;;;;;;2.67;2.53;;;;;;;;;;5032127;28;20535;-75
2022/07/07 02:05:27;;;;;;;2.90;2.53;;;;;;;;;;5032581;28;20451;-76
2022/07/07 02:07:54;;;;;;;3.43;2.47;;;;;;;;;;5032306;28;21059;-75
2022/07/07 02:13:02;;;;;;;3.43;3.07;;;;;;;;;;5051290;28;20442;-75
2022/07/07 02:15:30;;;;;;;3.87;2.77;;;;;;;;;;5052198;28;20438;-75
2022/07/07 02:17:59;;;;;;;4.17;2.47;;;;;;;;;;5052242;28;20464;-76
2022/07/07 02:20:27;;;;;;;4.03;2.67;;;;;;;;;;5052872;28;20481;-75
2022/07/07 02:22:54;;;;;;;2.50;2.30;;;;;;;;;;5051731;28;20469;-75
2022/07/07 02:25:21;;;;;;;3.43;2.40;;;;;;;;;;5051828;28;20437;-75
2022/07/07 02:27:48;;;;;;;2.83;2.63;;;;;;;;;;5051841;28;20469;-76
2022/07/07 02:30:15;;;;;;;2.70;2.50;;;;;;;;;;5052003;28;20452;-74
2022/07/07 02:32:43;;;;;;;4.73;2.90;;;;;;;;;;5051385;28;20465;-74
2022/07/07 02:35:10;;;;;;;2.20;2.10;;;;;;;;;;5051723;28;20480;-76
2022/07/07 02:37:37;;;;;;;2.80;2.40;;;;;;;;;;5051938;28;20983;-74
2022/07/07 02:40:05;;;;;;;2.80;2.60;;;;;;;;;;5052013;28;20495;-76
2022/07/07 02:42:33;;;;;;;2.70;2.50;;;;;;;;;;5051364;28;20992;-74
2022/07/07 02:45:00;;;;;;;3.23;2.80;;;;;;;;;;5052151;28;20441;-74
2022/07/07 02:47:27;;;;;;;2.90;2.70;;;;;;;;;;5051992;28;20489;-74
2022/07/07 02:49:55;;;;;;;2.83;2.63;;;;;;;;;;5051366;28;20872;-73
2022/07/07 02:52:22;;;;;;;3.50;2.50;;;;;;;;;;5051736;28;20462;-76
2022/07/07 02:54:49;;;;;;;2.83;2.33;;;;;;;;;;5051441;28;20917;-76
2022/07/07 02:57:16;;;;;;;4.23;3.10;;;;;;;;;;5051683;28;20563;-74
2022/07/07 02:59:43;;;;;;;2.27;2.17;;;;;;;;;;5051342;28;20549;-76
2022/07/07 03:02:10;;;;;;;3.03;2.40;;;;;;;;;;5051211;28;20576;-74
2022/07/07 03:04:37;;;;;;;2.43;2.20;;;;;;;;;;5051228;28;20441;-75
2022/07/07 03:07:06;;;;;;;5.07;2.33;;;;;;;;;;5051614;28;20473;-75
2022/07/07 03:09:32;;;;;;;2.87;2.57;;;;;;;;;;5039548;28;20496;-75
2022/07/07 03:11:59;;;;;;;2.57;2.30;;;;;;;;;;5031455;28;20466;-76
2022/07/07 03:14:27;;;;;;;3.50;2.40;;;;;;;;;;5031086;28;20473;-74
2022/07/07 03:16:54;;;;;;;2.80;2.37;;;;;;;;;;5031532;28;20438;-75
2022/07/07 03:19:21;;;;;;;3.83;2.60;;;;;;;;;;5035911;28;20504;-75
2022/07/07 03:21:48;;;;;;;4.27;2.73;;;;;;;;;;5036328;28;20520;-75
2022/07/07 03:24:16;;;;;;;2.60;2.40;;;;;;;;;;5035973;28;20447;-75
2022/07/07 03:26:43;;;;;;;5.77;2.43;;;;;;;;;;5035889;28;20598;-74
2022/07/07 03:29:10;;;;;;;5.40;2.67;;;;;;;;;;5037269;28;20453;-75
2022/07/07 03:31:37;;;;;;;2.37;2.10;;;;;;;;;;5032399;28;20466;-75
2022/07/07 03:34:04;;;;;;;3.07;2.53;;;;;;;;;;5030719;28;20503;-76
2022/07/07 03:36:31;;;;;;;2.67;2.17;;;;;;;;;;5047505;28;20494;-76
2022/07/07 03:38:58;;;;;;;3.43;2.40;;;;;;;;;;5051243;28;20453;-75
2022/07/07 03:41:26;;;;;;;2.50;2.20;;;;;;;;;;5032242;28;20477;-74
2022/07/07 03:43:53;;;;;;;3.70;2.50;;;;;;;;;;5031175;28;20957;-76
2022/07/07 03:46:20;;;;;;;3.53;3.13;;;;;;;;;;5031575;28;20513;-75
2022/07/07 03:48:47;;;;;;;4.97;2.40;;;;;;;;;;5031109;28;20511;-77
2022/07/07 03:51:14;;;;;;;2.93;2.23;;;;;;;;;;5030964;28;20492;-75
2022/07/07 03:53:41;;;;;;;3.30;2.43;;;;;;;;;;5031520;28;20449;-75
2022/07/07 03:56:08;;;;;;;2.60;2.30;;;;;;;;;;5041377;28;20442;-74
2022/07/07 03:58:37;;;;;;;4.10;2.30;;;;;;;;;;5038016;28;20530;-76
2022/07/07 04:01:04;;;;;;;3.13;2.23;;;;;;;;;;5031324;28;20477;-77
2022/07/07 04:03:31;;;;;;;2.57;2.37;;;;;;;;;;5030883;28;20462;-74
2022/07/07 04:05:58;;;;;;;2.60;2.50;;;;;;;;;;5031045;28;20490;-76
2022/07/07 04:08:25;;;;;;;3.83;2.63;;;;;;;;;;5049118;28;20559;-76
2022/07/07 04:10:52;;;;;;;3.07;2.03;;;;;;;;;;5050784;28;20453;-75
2022/07/07 04:13:20;;;;;;;4.03;2.13;;;;;;;;;;5050832;28;21031;-77
2022/07/07 04:15:48;;;;;;;3.60;2.20;;;;;;;;;;5036718;28;20473;-74
2022/07/07 04:18:15;;;;;;;2.77;2.57;;;;;;;;;;5030976;28;20435;-74
2022/07/07 04:20:42;;;;;;;2.50;2.30;;;;;;;;;;5033853;28;20445;-75
2022/07/07 04:23:09;;;;;;;2.53;2.37;;;;;;;;;;5050248;28;20469;-75
2022/07/07 04:25:36;;;;;;;2.27;2.07;;;;;;;;;;5046583;28;20447;-75
2022/07/07 04:28:03;;;;;;;2.70;2.50;;;;;;;;;;5032996;28;20589;-74
2022/07/07 04:30:30;;;;;;;2.60;1.93;;;;;;;;;;5033125;28;20496;-74
2022/07/07 04:32:59;;;;;;;4.13;2.40;;;;;;;;;;5032046;28;20470;-74
2022/07/07 04:35:26;;;;;;;3.90;2.17;;;;;;;;;;5031101;28;20443;-75
2022/07/07 04:37:53;;;;;;;2.90;2.70;;;;;;;;;;5031083;28;20450;-75
2022/07/07 04:40:20;;;;;;;2.23;2.03;;;;;;;;;;5030694;28;20610;-75
2022/07/07 04:42:47;;;;;;;4.00;2.40;;;;;;;;;;5031190;28;20458;-77
2022/07/07 04:45:14;;;;;;;2.30;2.20;;;;;;;;;;5034305;28;20453;-73
2022/07/07 04:47:41;;;;;;;2.00;1.83;;;;;;;;;;5036589;28;20528;-75
2022/07/07 04:50:10;;;;;;;4.20;2.27;;;;;;;;;;5037880;28;20442;-74
2022/07/07 04:52:37;;;;;;;2.10;1.90;;;;;;;;;;5035209;28;20481;-75
2022/07/07 04:55:05;;;;;;;2.77;2.57;;;;;;;;;;5034498;28;20454;-73
2022/07/07 04:57:32;;;;;;;2.40;2.13;;;;;;;;;;5033969;28;21012;-75
2022/07/07 04:59:59;;;;;;;2.30;1.90;;;;;;;;;;5034664;28;20495;-75
2022/07/07 05:02:26;;;;;;;3.70;1.87;;;;;;;;;;5033976;28;21013;-77
2022/07/07 05:04:54;;;;;;;2.73;2.33;;;;;;;;;;5034092;28;20446;-74
2022/07/07 05:07:22;;;;;;;2.47;2.10;;;;;;;;;;5033756;28;20486;-76
2022/07/07 05:09:49;;;;;;;3.70;2.50;;;;;;;;;;5048102;28;20851;-74
2022/07/07 05:12:16;;;;;;;3.63;2.27;;;;;;;;;;5054186;28;20488;-74
2022/07/07 05:14:43;;;;;;;2.37;2.27;;;;;;;;;;5054122;28;20452;-76
2022/07/07 05:17:10;;;;;;;2.80;2.50;;;;;;;;;;5054206;28;20441;-75
2022/07/07 05:19:37;;;;;;;2.10;2.00;;;;;;;;;;5054067;28;20442;-74
2022/07/07 05:22:05;;;;;;;2.60;2.37;;;;;;;;;;5053841;28;21136;-74
2022/07/07 05:24:33;;;;;;;3.57;2.30;;;;;;;;;;5053345;28;20893;-74
2022/07/07 05:27:00;;;;;;;2.70;2.50;;;;;;;;;;5053544;28;20450;-74
2022/07/07 05:29:27;;;;;;;2.70;2.30;;;;;;;;;;5054338;28;20489;-74
2022/07/07 05:31:54;;;;;;;6.17;2.53;;;;;;;;;;5053982;28;21054;-74
2022/07/07 05:34:21;;;;;;;4.00;2.63;;;;;;;;;;5053375;28;20606;-75
2022/07/07 05:36:48;;;;;;;2.60;2.40;;;;;;;;;;5053218;28;20463;-74
2022/07/07 05:39:15;;;;;;;4.77;2.80;;;;;;;;;;5053521;28;20441;-74
2022/07/07 05:41:44;;;;;;;2.33;2.10;;;;;;;;;;5053691;28;20828;-76
2022/07/07 05:44:11;;;;;;;4.60;3.07;;;;;;;;;;5053016;28;20437;-76
2022/07/07 05:46:38;;;;;;;6.53;2.20;;;;;;;;;;5053007;28;20480;-74
2022/07/07 05:49:05;;;;;;;3.00;2.37;;;;;;;;;;5053339;28;20469;-74
2022/07/07 05:51:32;;;;;;;6.40;5.73;;;;;;;;;;5053392;28;20461;-75
2022/07/07 05:53:59;;;;;;;3.80;2.27;;;;;;;;;;5053043;28;20862;-75
2022/07/07 05:56:26;;;;;;;6.83;2.60;;;;;;;;;;5052405;28;20450;-75
2022/07/07 05:58:54;;;;;;;5.93;2.73;;;;;;;;;;5052830;28;20437;-74
2022/07/07 06:01:21;;;;;;;4.60;2.63;;;;;;;;;;5052330;28;20499;-74
2022/07/07 06:03:48;;;;;;;2.47;2.30;;;;;;;;;;5052096;28;20917;-74
2022/07/07 06:06:15;;;;;;;2.50;2.40;;;;;;;;;;5052791;28;20445;-75
2022/07/07 06:08:42;;;;;;;3.90;2.47;;;;;;;;;;5052360;28;20523;-74
2022/07/07 06:11:09;;;;;;;2.80;2.57;;;;;;;;;;5052541;28;20446;-76
2022/07/07 06:13:36;;;;;;;2.30;2.20;;;;;;;;;;5052407;28;20437;-74
2022/07/07 06:16:05;;;;;;;4.93;2.70;;;;;;;;;;5052077;28;20883;-74
2022/07/07 06:18:32;;;;;;;3.53;2.30;;;;;;;;;;5052280;28;20445;-75
2022/07/07 06:20:59;;;;;;;4.13;2.60;;;;;;;;;;5052062;28;20446;-74
2022/07/07 06:23:26;;;;;;;2.83;2.43;;;;;;;;;;5051881;28;20453;-74
2022/07/07 06:25:53;;;;;;;3.13;2.83;;;;;;;;;;5037049;28;20442;-75
2022/07/07 06:28:20;;;;;;;3.37;2.27;;;;;;;;;;5031928;28;20996;-76
2022/07/07 06:30:47;;;;;;;2.47;2.27;;;;;;;;;;5031992;28;20447;-75
2022/07/07 06:33:16;;;;;;;2.83;2.30;;;;;;;;;;5031487;28;20466;-75
2022/07/07 06:35:43;;;;;;;2.67;2.47;;;;;;;;;;5031739;28;20814;-75
2022/07/07 06:38:10;;;;;;;3.20;2.20;;;;;;;;;;5031763;28;20450;-74
2022/07/07 06:40:37;;;;;;;2.37;2.17;;;;;;;;;;5031504;28;20442;-75
2022/07/07 06:43:04;;;;;;;3.20;2.93;;;;;;;;;;5031533;28;20459;-75
2022/07/07 06:45:31;;;;;;;2.80;2.17;;;;;;;;;;5031459;28;20446;-75
2022/07/07 06:47:58;;;;;;;3.80;2.53;;;;;;;;;;5031257;28;20524;-75
2022/07/07 06:50:26;;;;;;;3.60;2.57;;;;;;;;;;5031549;28;20444;-76
2022/07/07 06:52:53;;;;;;;2.43;2.23;;;;;;;;;;5031092;28;20888;-76
2022/07/07 06:55:20;;;;;;;2.40;2.27;;;;;;;;;;5031781;28;20439;-75
2022/07/07 06:57:47;;;;;;;4.67;2.47;;;;;;;;;;5031865;28;20473;-74
2022/07/07 07:00:15;;;;;;;3.80;2.60;;;;;;;;;;5033271;28;20496;-75
2022/07/07 07:02:43;;;;;;;2.83;2.50;;;;;;;;;;5031816;28;20561;-75
2022/07/07 07:05:10;;;;;;;3.23;2.63;;;;;;;;;;5032089;28;20478;-75
2022/07/07 07:07:38;;;;;;;8.47;3.10;;;;;;;;;;5030765;28;20450;-75
2022/07/07 07:10:06;;;;;;;2.47;2.27;;;;;;;;;;5031624;28;20442;-74
2022/07/07 07:12:33;;;;;;;3.70;2.17;;;;;;;;;;5031383;28;20467;-74
2022/07/07 07:15:00;;;;;;;3.77;2.53;;;;;;;;;;5031500;28;20454;-75
2022/07/07 07:17:27;;;;;;;2.63;2.40;;;;;;;;;;5031633;28;20460;-74
2022/07/07 07:19:54;;;;;;;2.83;2.30;;;;;;;;;;5031010;28;20446;-74
2022/07/07 07:22:21;;;;;;;3.47;2.90;;;;;;;;;;5032017;28;20537;-75
2022/07/07 07:24:50;;;;;;;2.73;2.37;;;;;;;;;;5032169;28;20442;-75
2022/07/07 07:27:17;;;;;;;2.60;2.27;;;;;;;;;;5033895;28;20865;-75
2022/07/07 07:29:44;;;;;;;2.80;2.50;;;;;;;;;;5034724;28;20482;-75
2022/07/07 07:32:11;;;;;;;3.27;2.40;;;;;;;;;;5032261;28;20511;-74
2022/07/07 07:34:38;;;;;;;2.37;2.17;;;;;;;;;;5031543;28;20450;-74
2022/07/07 07:37:05;;;;;;;3.30;2.47;;;;;;;;;;5031046;28;20446;-75
2022/07/07 07:39:32;;;;;;;2.80;2.50;;;;;;;;;;5031148;28;20447;-75
2022/07/07 07:42:00;;;;;;;5.60;2.50;;;;;;;;;;5031249;28;20497;-75
2022/07/07 07:47:12;;;;;;;2.57;2.37;;;;;;;;;;5030726;28;20774;-75
2022/07/07 07:49:39;;;;;;;3.93;2.20;;;;;;;;;;5030783;28;20482;-75
2022/07/07 07:52:07;;;;;;;2.43;2.23;;;;;;;;;;5030560;28;20473;-74
2022/07/07 07:54:34;;;;;;;2.07;1.97;;;;;;;;;;5030513;28;20500;-75
2022/07/07 07:57:03;;;;;;;3.23;2.93;;;;;;;;;;5030575;28;20454;-75
2022/07/07 07:59:30;;;;;;;2.33;2.20;;;;;;;;;;5030750;28;20539;-75
2022/07/07 08:01:57;;;;;;;2.83;2.60;;;;;;;;;;5034070;28;20501;-76
2022/07/07 08:04:24;;;;;;;2.87;2.53;;;;;;;;;;5035659;28;20446;-75
2022/07/07 08:06:51;;;;;;;2.50;2.40;;;;;;;;;;5031437;28;20454;-75
2022/07/07 08:09:18;;;;;;;2.97;2.67;;;;;;;;;;5040371;28;20530;-75
2022/07/07 08:11:45;;;;;;;3.73;2.70;;;;;;;;;;5050618;28;20465;-76
2022/07/07 08:14:13;;;;;;;2.80;2.33;;;;;;;;;;5051546;28;20499;-75
2022/07/07 08:16:40;;;;;;;4.43;3.10;;;;;;;;;;5050342;28;20449;-73
2022/07/07 08:19:07;;;;;;;4.03;2.90;;;;;;;;;;5052180;28;20441;-74
2022/07/07 08:21:34;;;;;;;3.53;2.70;;;;;;;;;;5054726;28;20469;-75
2022/07/07 08:24:02;;;;;;;2.90;2.70;;;;;;;;;;5054229;28;20495;-74
2022/07/07 08:26:29;;;;;;;3.03;2.60;;;;;;;;;;5057173;28;20441;-74
2022/07/07 08:28:56;;;;;;;3.00;2.80;;;;;;;;;;5055949;28;20481;-74
2022/07/07 08:31:24;;;;;;;3.47;3.17;;;;;;;;;;5055138;28;20453;-74
2022/07/07 08:33:51;;;;;;;3.37;3.07;;;;;;;;;;5053630;28;20474;-74
2022/07/07 08:36:18;;;;;;;3.20;3.00;;;;;;;;;;5054073;28;20449;-74
2022/07/07 08:38:45;;;;;;;3.83;3.20;;;;;;;;;;5052899;28;20790;-74
2022/07/07 08:41:12;;;;;;;5.77;3.20;;;;;;;;;;5050520;28;20446;-74
2022/07/07 08:43:39;;;;;;;4.53;3.20;;;;;;;;;;5050827;28;20442;-74
2022/07/07 08:46:07;;;;;;;4.60;4.00;;;;;;;;;;5053068;28;20791;-76
2022/07/07 08:48:35;;;;;;;4.37;3.50;;;;;;;;;;5049502;28;20482;-74
2022/07/07 08:51:03;;;;;;;2.93;2.80;;;;;;;;;;5033683;28;20826;-75
2022/07/07 08:53:30;;;;;;;3.60;3.40;;;;;;;;;;5033200;28;20453;-75
2022/07/07 08:55:58;;;;;;;5.73;3.40;;;;;;;;;;5033330;28;20500;-75
2022/07/07 08:58:25;;;;;;;6.70;4.80;;;;;;;;;;5033530;28;20442;-74
2022/07/07 09:00:53;;;;;;;4.50;4.20;;;;;;;;;;5033888;28;20454;-75
2022/07/07 09:03:20;;;;;;;5.10;4.63;;;;;;;;;;5033426;28;20555;-75
2022/07/07 09:05:50;;;;;;;4.23;3.80;;;;;;;;;;5033585;28;20504;-74
2022/07/07 09:08:17;;;;;;;3.97;3.60;;;;;;;;;;5033404;28;20446;-74
2022/07/07 09:10:45;;;;;;;3.53;3.23;;;;;;;;;;5033558;28;20791;-75
2022/07/07 09:13:21;;;;;;;5.40;4.03;;;;;;;;;;5033036;28;20470;-75
2022/07/07 09:15:48;;;;;;;4.40;4.10;;;;;;;;;;5038731;28;20548;-75
2022/07/07 09:18:28;;;;;;;5.40;4.73;;;;;;;;;;5051954;28;20503;-75
2022/07/07 09:20:57;;;;;;;5.20;4.30;;;;;;;;;;5047267;28;20462;-75
2022/07/07 09:23:24;;;;;;;15.20;3.20;;;;;;;;;;5049899;28;20455;-75
2022/07/07 09:25:51;;;;;;;2.93;2.03;;;;;;;;;;5041382;28;20942;-74
2022/07/07 09:28:18;;;;;;;4.07;2.00;;;;;;;;;;5036541;28;20453;-75
2022/07/07 09:30:46;;;;;;;4.40;2.00;;;;;;;;;;5052903;28;20449;-73
2022/07/07 09:33:14;;;;;;;2.30;2.10;;;;;;;;;;5053586;28;20537;-74
2022/07/07 09:38:30;;;;;;;3.07;1.80;;;;;;;;;;5045588;28;20421;-75
2022/07/07 09:41:03;;;;;;;2.50;2.20;;;;;;;;;;5054085;28;20931;-75
2022/07/07 09:43:31;;;;;;;2.33;2.10;;;;;;;;;;5045359;28;20821;-74
2022/07/07 09:46:11;;;;;;;2.40;2.17;;;;;;;;;;5053586;28;20858;-75
2022/07/07 09:48:38;;;;;;;3.13;2.67;;;;;;;;;;5053362;28;20523;-75
2022/07/07 09:51:19;;;;;;;2.53;2.33;;;;;;;;;;5053520;28;20438;-75
2022/07/07 09:54:01;;;;;;;2.67;2.47;;;;;;;;;;5046648;28;20445;-75
2022/07/07 09:56:29;;;;;;;1.90;1.80;;;;;;;;;;5053591;28;20437;-76
2022/07/07 09:58:56;;;;;;;3.40;2.40;;;;;;;;;;5053580;28;20539;-74
2022/07/07 10:01:25;;;;;;;3.50;2.40;;;;;;;;;;5053152;28;20499;-74
2022/07/07 10:03:54;;;;;;;3.40;2.87;;;;;;;;;;5053093;28;20933;-74
2022/07/07 10:06:21;;;;;;;3.93;2.57;;;;;;;;;;5053615;28;20441;-75
2022/07/07 10:08:51;;;;;;;2.50;2.30;;;;;;;;;;5053670;28;20531;-75
2022/07/07 10:11:19;;;;;;;2.40;2.20;;;;;;;;;;5054109;28;20437;-74
2022/07/07 10:13:49;;;;;;;4.70;3.00;;;;;;;;;;5053566;28;20475;-75
2022/07/07 10:16:17;;;;;;;2.80;2.60;;;;;;;;;;5053964;28;20528;-74
2022/07/07 10:18:44;;;;;;;2.90;2.70;;;;;;;;;;5053701;28;20457;-75
2022/07/07 10:21:11;;;;;;;2.60;2.40;;;;;;;;;;5053755;28;20448;-75
2022/07/07 10:23:39;;;;;;;2.50;2.40;;;;;;;;;;5053172;28;20442;-74
2022/07/07 10:26:07;;;;;;;2.70;2.60;;;;;;;;;;5053574;28;20452;-75
2022/07/07 10:28:53;;;;;;;2.80;2.60;;;;;;;;;;5053893;28;20503;-76
2022/07/07 10:31:23;;;;;;;2.77;2.50;;;;;;;;;;5053394;28;20449;-75
2022/07/07 10:33:59;;;;;;;3.03;2.67;;;;;;;;;;5052847;28;20495;-75
2022/07/07 10:36:26;;;;;;;3.07;2.87;;;;;;;;;;5053352;28;20507;-75
2022/07/07 10:38:54;;;;;;;3.00;2.80;;;;;;;;;;5053704;28;20440;-74
2022/07/07 10:41:23;;;;;;;2.33;2.23;;;;;;;;;;5052951;28;20438;-75
2022/07/07 10:43:56;;;;;;;2.67;2.57;;;;;;;;;;5051821;28;20453;-75
2022/07/07 10:46:24;;;;;;;3.10;2.90;;;;;;;;;;5052754;28;20476;-75
2022/07/07 10:48:54;;;;;;;3.23;2.70;;;;;;;;;;5053163;28;20531;-74
2022/07/07 10:51:22;;;;;;;3.77;2.43;;;;;;;;;;5053370;28;20864;-75
2022/07/07 10:53:55;;;;;;;2.67;2.47;;;;;;;;;;5052953;28;20480;-75
2022/07/07 10:56:22;;;;;;;2.97;2.70;;;;;;;;;;5052668;28;20487;-75
2022/07/07 10:58:56;;;;;;;2.63;2.43;;;;;;;;;;5053681;28;20464;-75
2022/07/07 11:01:25;;;;;;;3.40;2.20;;;;;;;;;;5054539;28;20438;-75
2022/07/07 11:03:53;;;;;;;3.20;2.40;;;;;;;;;;5054326;28;20951;-77
2022/07/07 11:06:20;;;;;;;2.70;2.50;;;;;;;;;;5053273;28;20449;-77
2022/07/07 11:08:56;;;;;;;3.43;2.20;;;;;;;;;;5052654;28;20453;-75
2022/07/07 11:11:23;;;;;;;3.80;2.50;;;;;;;;;;5052771;28;20830;-74
2022/07/07 11:14:02;;;;;;;2.40;2.23;;;;;;;;;;5052261;28;20795;-74
2022/07/07 11:16:31;;;;;;;2.30;2.20;;;;;;;;;;5052328;28;20491;-75
2022/07/07 11:18:58;;;;;;;2.37;2.00;;;;;;;;;;5052776;28;20442;-75
2022/07/07 11:21:40;;;;;;;2.50;2.27;;;;;;;;;;5052750;28;20454;-74
2022/07/07 11:24:18;;;;;;;2.40;2.20;;;;;;;;;;5052162;28;20444;-76
2022/07/07 11:26:54;;;;;;;2.37;2.00;;;;;;;;;;5052164;28;20900;-75
2022/07/07 11:29:21;;;;;;;2.33;2.00;;;;;;;;;;5052388;28;20530;-75
2022/07/07 11:31:49;;;;;;;4.30;2.23;;;;;;;;;;5052017;28;20559;-74
2022/07/07 11:34:18;;;;;;;4.07;3.00;;;;;;;;;;5051737;28;20445;-76
2022/07/07 11:36:45;;;;;;;3.23;2.57;;;;;;;;;;5056852;28;20521;-75
2022/07/07 11:39:12;;;;;;;2.67;2.47;;;;;;;;;;5058788;28;20494;-75
2022/07/07 11:41:41;;;;;;;5.50;2.90;;;;;;;;;;5057329;28;20915;-75
2022/07/07 11:44:08;;;;;;;4.80;2.77;;;;;;;;;;5058171;28;20449;-75
2022/07/07 11:46:35;;;;;;;2.80;2.60;;;;;;;;;;5057707;28;20456;-77
2022/07/07 11:49:04;;;;;;;2.60;2.40;;;;;;;;;;5055113;28;20537;-74
2022/07/07 11:51:31;;;;;;;2.67;2.47;;;;;;;;;;5051831;28;20469;-76
2022/07/07 11:53:59;;;;;;;4.83;2.90;;;;;;;;;;5051982;28;20442;-76
2022/07/07 11:56:30;;;;;;;7.83;2.90;;;;;;;;;;5051479;28;20464;-74
2022/07/07 11:58:58;;;;;;;6.87;2.60;;;;;;;;;;5051382;28;20437;-74
2022/07/07 12:01:25;;;;;;;3.63;3.20;;;;;;;;;;5051241;28;20466;-76
2022/07/07 12:03:53;;;;;;;2.63;2.43;;;;;;;;;;5052187;28;20491;-75
2022/07/07 12:06:25;;;;;;;4.37;2.83;;;;;;;;;;5052137;28;20941;-74
2022/07/07 12:08:52;;;;;;;5.20;3.50;;;;;;;;;;5052786;28;20434;-75
2022/07/07 12:11:21;;;;;;;4.83;2.87;;;;;;;;;;5052154;28;20916;-75
2022/07/07 12:13:48;;;;;;;3.00;2.80;;;;;;;;;;5052664;28;20452;-75
2022/07/07 12:16:15;;;;;;;3.13;2.80;;;;;;;;;;5052852;28;20507;-75
2022/07/07 12:18:43;;;;;;;4.00;2.63;;;;;;;;;;5051859;28;20495;-75
2022/07/07 12:21:11;;;;;;;2.43;2.27;;;;;;;;;;5053024;28;20441;-76
2022/07/07 12:23:46;;;;;;;3.30;2.53;;;;;;;;;;5059611;28;20941;-72
2022/07/07 12:26:15;;;;;;;2.70;2.50;;;;;;;;;;5061089;28;20476;-74
2022/07/07 12:28:43;;;;;;;3.13;2.60;;;;;;;;;;5045729;28;20449;-73
2022/07/07 12:31:16;;;;;;;3.03;2.83;;;;;;;;;;5039042;28;20505;-73
2022/07/07 12:33:45;;;;;;;3.60;2.87;;;;;;;;;;5044610;28;20418;-73
2022/07/07 12:36:14;;;;;;;3.20;2.50;;;;;;;;;;5045263;28;20437;-74
2022/07/07 12:38:43;;;;;;;3.10;2.80;;;;;;;;;;5044071;28;20465;-74
2022/07/07 12:41:20;;;;;;;3.47;3.17;;;;;;;;;;5037655;28;20469;-74
2022/07/07 12:43:47;;;;;;;4.23;2.87;;;;;;;;;;5033289;28;20513;-75
2022/07/07 12:46:14;;;;;;;3.17;2.90;;;;;;;;;;5034628;28;20446;-75
2022/07/07 12:48:49;;;;;;;3.87;3.00;;;;;;;;;;5034250;28;20450;-74
2022/07/07 12:51:16;;;;;;;3.13;2.93;;;;;;;;;;5034270;28;20462;-74
2022/07/07 12:53:44;;;;;;;3.60;3.00;;;;;;;;;;5033594;28;20496;-74
2022/07/07 12:56:13;;;;;;;3.37;3.07;;;;;;;;;;5045819;28;20423;-75
2022/07/07 12:58:44;;;;;;;3.13;2.90;;;;;;;;;;5049889;28;20454;-74
2022/07/07 13:01:14;;;;;;;6.60;3.00;;;;;;;;;;5062785;28;20521;-74
2022/07/07 13:03:42;;;;;;;6.03;2.90;;;;;;;;;;5063584;28;20425;-75
2022/07/07 13:06:09;;;;;;;3.30;2.93;;;;;;;;;;5070087;28;20505;-74
2022/07/07 13:08:36;;;;;;;3.50;3.00;;;;;;;;;;5063637;28;20487;-74
2022/07/07 13:11:03;;;;;;;3.70;3.07;;;;;;;;;;5047875;28;20477;-74
2022/07/07 13:13:31;;;;;;;2.93;2.73;;;;;;;;;;5054849;28;20560;-75
2022/07/07 13:15:58;;;;;;;4.63;3.27;;;;;;;;;;5054319;28;20441;-74
2022/07/07 13:18:26;;;;;;;3.47;3.17;;;;;;;;;;5055146;28;20504;-75
2022/07/07 13:20:54;;;;;;;2.80;2.60;;;;;;;;;;5054196;28;20430;-75
2022/07/07 13:23:22;;;;;;;3.10;2.90;;;;;;;;;;5054130;28;20882;-74
2022/07/07 13:25:49;;;;;;;3.33;3.03;;;;;;;;;;5054348;28;20454;-74
2022/07/07 13:28:16;;;;;;;3.27;3.07;;;;;;;;;;5054551;28;20441;-75
2022/07/07 13:30:45;;;;;;;3.40;3.10;;;;;;;;;;5053719;28;20984;-73
2022/07/07 13:33:12;;;;;;;4.87;3.20;;;;;;;;;;5053403;28;20542;-76
2022/07/07 13:35:39;;;;;;;3.73;2.93;;;;;;;;;;5052760;28;20496;-76
2022/07/07 13:38:06;;;;;;;3.33;2.87;;;;;;;;;;5053660;28;20460;-75
2022/07/07 13:40:34;;;;;;;3.00;2.80;;;;;;;;;;5053531;28;20997;-76
2022/07/07 13:43:01;;;;;;;3.60;3.30;;;;;;;;;;5053320;28;20465;-76
2022/07/07 13:45:28;;;;;;;2.90;2.60;;;;;;;;;;5053704;28;20858;-75
2022/07/07 13:47:56;;;;;;;2.90;2.70;;;;;;;;;;5053116;28;20491;-77
2022/07/07 13:50:23;;;;;;;5.23;3.07;;;;;;;;;;5053114;28;20527;-76
2022/07/07 13:52:50;;;;;;;3.03;2.87;;;;;;;;;;5053048;28;20552;-77
2022/07/07 13:55:18;;;;;;;2.50;2.40;;;;;;;;;;5053099;28;20456;-75
2022/07/07 13:57:46;;;;;;;2.53;2.20;;;;;;;;;;5052867;28;20549;-76
2022/07/07 14:00:13;;;;;;;2.00;1.90;;;;;;;;;;5053008;28;20437;-75
2022/07/07 14:02:40;;;;;;;2.20;2.00;;;;;;;;;;5052532;28;20523;-75
2022/07/07 14:05:09;;;;;;;2.10;1.73;;;;;;;;;;5053241;28;20849;-76
2022/07/07 14:07:38;;;;;;;2.50;2.37;;;;;;;;;;5053218;28;20868;-75
2022/07/07 14:10:05;;;;;;;2.10;2.00;;;;;;;;;;5052307;28;20480;-74
2022/07/07 14:12:33;;;;;;;1.83;1.73;;;;;;;;;;5039524;28;20902;-75
2022/07/07 14:15:00;;;;;;;2.10;2.00;;;;;;;;;;5033545;28;20442;-75
2022/07/07 14:17:27;;;;;;;1.63;1.53;;;;;;;;;;5033122;28;20450;-75
2022/07/07 14:19:54;;;;;;;1.90;1.80;;;;;;;;;;5033469;28;20442;-75
2022/07/07 14:22:22;;;;;;;2.87;1.50;;;;;;;;;;5033295;28;20469;-75
2022/07/07 14:24:50;;;;;;;1.83;1.73;;;;;;;;;;5033064;28;20439;-75
2022/07/07 14:27:17;;;;;;;2.70;2.10;;;;;;;;;;5033007;28;20486;-76
2022/07/07 14:29:44;;;;;;;1.93;1.83;;;;;;;;;;5032667;28;20931;-75
2022/07/07 14:32:11;;;;;;;1.70;1.60;;;;;;;;;;5032877;28;20463;-76
2022/07/07 14:34:38;;;;;;;2.90;2.30;;;;;;;;;;5032764;28;20442;-76
2022/07/07 14:37:05;;;;;;;2.27;2.10;;;;;;;;;;5032963;28;20469;-76
2022/07/07 14:39:34;;;;;;;3.53;1.53;;;;;;;;;;5033149;28;20443;-75
2022/07/07 14:42:01;;;;;;;2.00;1.90;;;;;;;;;;5032740;28;20465;-74
2022/07/07 14:44:28;;;;;;;2.60;2.40;;;;;;;;;;5032434;28;20446;-75
2022/07/07 14:46:55;;;;;;;1.93;1.83;;;;;;;;;;5032826;28;20472;-75
2022/07/07 14:49:22;;;;;;;2.03;1.93;;;;;;;;;;5032494;28;20503;-76
2022/07/07 14:51:49;;;;;;;3.43;1.70;;;;;;;;;;5032709;28;20486;-76
2022/07/07 14:54:16;;;;;;;1.63;1.53;;;;;;;;;;5032255;28;20849;-76